Time;durP1;ratioP1;P1;durP2;ratioP2;P2;SDS_P1;SDS_P2;PMS_P1;PMS_P2;Temp;Humidity;BMP_temperature;BMP_pressure;BME280_temperature;BME280_humidity;BME280_pressure;Samples;Min_cycle;Max_cycle;Signal;HPM_P1;HPM_P2
2022/11/29 00:01:41;;;;;;;39.57;20.70;;;3.20;99.90;;;;;;5034453;28;20264;-74
2022/11/29 00:04:30;;;;;;;38.40;21.00;;;3.10;99.90;;;;;;5044158;28;20229;-74
2022/11/29 00:07:18;;;;;;;40.57;20.67;;;3.10;99.90;;;;;;5027924;28;20313;-73
2022/11/29 00:10:08;;;;;;;35.03;20.13;;;3.30;99.90;;;;;;5021915;28;20260;-72
2022/11/29 00:12:57;;;;;;;37.80;20.93;;;3.40;99.90;;;;;;5019061;28;20271;-73
2022/11/29 00:15:47;;;;;;;38.10;21.17;;;3.30;99.90;;;;;;5020948;28;20305;-73
2022/11/29 00:18:36;;;;;;;37.23;20.07;;;3.20;99.90;;;;;;5022293;28;20233;-73
2022/11/29 00:21:25;;;;;;;35.77;20.83;;;3.10;99.90;;;;;;5026470;28;20252;-73
2022/11/29 00:24:13;;;;;;;42.67;20.50;;;2.80;99.90;;;;;;5023546;28;20220;-72
2022/11/29 00:27:02;;;;;;;37.33;19.90;;;2.80;99.90;;;;;;5011418;28;20696;-75
2022/11/29 00:29:52;;;;;;;35.17;19.70;;;2.90;99.90;;;;;;5017263;28;20282;-74
2022/11/29 00:32:42;;;;;;;36.47;19.73;;;3.00;99.90;;;;;;5008956;28;20704;-75
2022/11/29 00:35:32;;;;;;;36.00;20.37;;;3.00;99.90;;;;;;5033919;28;20229;-75
2022/11/29 00:38:20;;;;;;;34.70;20.37;;;2.90;99.90;;;;;;5021638;28;20232;-73
2022/11/29 00:41:09;;;;;;;35.47;20.43;;;2.90;99.90;;;;;;5021322;28;20217;-74
2022/11/29 00:43:58;;;;;;;36.17;20.07;;;3.00;99.90;;;;;;5024484;28;20231;-75
2022/11/29 00:46:47;;;;;;;35.03;19.60;;;2.90;99.90;;;;;;5006424;28;20285;-75
2022/11/29 00:49:37;;;;;;;37.50;20.47;;;3.10;99.90;;;;;;5018356;28;20232;-75
2022/11/29 00:52:25;;;;;;;34.63;20.37;;;3.00;99.90;;;;;;5021978;28;20401;-74
2022/11/29 00:55:14;;;;;;;35.87;20.10;;;3.00;99.90;;;;;;5020653;28;20224;-75
2022/11/29 00:58:03;;;;;;;33.53;19.90;;;3.10;99.90;;;;;;5023055;28;20588;-75
2022/11/29 01:00:53;;;;;;;35.67;19.97;;;3.10;99.90;;;;;;5005969;28;20294;-74
2022/11/29 01:03:41;;;;;;;36.53;20.07;;;3.20;99.90;;;;;;5035407;28;20229;-74
2022/11/29 01:06:31;;;;;;;36.60;19.83;;;3.00;99.90;;;;;;5006360;28;20755;-74
2022/11/29 01:09:20;;;;;;;37.43;21.00;;;3.00;99.90;;;;;;5024652;28;20224;-74
2022/11/29 01:12:08;;;;;;;38.40;19.00;;;3.20;99.90;;;;;;5033808;28;20225;-75
2022/11/29 01:14:58;;;;;;;38.47;20.40;;;3.10;99.90;;;;;;5017522;28;20313;-75
2022/11/29 01:17:47;;;;;;;33.23;19.10;;;3.20;99.90;;;;;;5028185;28;20213;-74
2022/11/29 01:20:36;;;;;;;37.23;20.63;;;3.30;99.90;;;;;;5033181;28;20978;-75
2022/11/29 01:23:27;;;;;;;38.20;20.13;;;2.90;99.90;;;;;;5037005;28;20266;-75
2022/11/29 01:26:18;;;;;;;36.83;20.30;;;2.80;99.90;;;;;;5034760;28;20232;-74
2022/11/29 01:29:24;;;;;;;39.70;20.37;;;3.00;99.90;;;;;;5027038;28;20269;-73
2022/11/29 01:32:13;;;;;;;36.00;20.13;;;3.10;99.90;;;;;;5034666;28;20304;-74
2022/11/29 01:35:01;;;;;;;33.67;19.77;;;3.00;99.90;;;;;;5037279;28;20305;-74
2022/11/29 01:37:50;;;;;;;35.23;19.10;;;3.00;99.90;;;;;;5034772;28;20239;-74
2022/11/29 01:40:40;;;;;;;40.27;21.00;;;3.20;99.90;;;;;;5038699;28;20220;-74
2022/11/29 01:43:29;;;;;;;37.83;20.63;;;3.20;99.90;;;;;;5021148;28;20247;-74
2022/11/29 01:46:18;;;;;;;33.93;19.50;;;3.20;99.90;;;;;;5038120;28;20239;-75
2022/11/29 01:49:11;;;;;;;36.43;20.10;;;3.20;99.90;;;;;;5034651;28;20268;-76
2022/11/29 01:52:02;;;;;;;37.53;20.20;;;3.20;99.90;;;;;;5033615;28;20797;-76
2022/11/29 01:54:55;;;;;;;38.97;20.37;;;3.20;99.90;;;;;;5030765;28;20311;-75
2022/11/29 01:57:45;;;;;;;38.20;20.47;;;3.10;99.90;;;;;;5032340;28;20224;-76
2022/11/29 02:00:34;;;;;;;38.30;21.37;;;3.20;99.90;;;;;;5038716;28;20232;-73
2022/11/29 02:03:22;;;;;;;36.10;19.80;;;3.20;99.90;;;;;;5036657;28;20228;-74
2022/11/29 02:06:11;;;;;;;41.30;20.73;;;3.00;99.90;;;;;;5033548;28;20224;-75
2022/11/29 02:09:00;;;;;;;37.83;20.50;;;3.00;99.90;;;;;;5019907;28;20364;-74
2022/11/29 02:12:09;;;;;;;42.03;22.00;;;2.90;99.90;;;;;;5000282;28;20234;-74
2022/11/29 02:15:12;;;;;;;42.20;20.80;;;3.00;99.90;;;;;;5012017;28;20225;-75
2022/11/29 02:18:08;;;;;;;37.43;20.03;;;3.10;99.90;;;;;;5017709;28;20236;-74
2022/11/29 02:21:24;;;;;;;41.57;21.83;;;3.20;99.90;;;;;;5020233;28;20582;-73
2022/11/29 02:24:53;;;;;;;36.63;20.13;;;3.00;99.90;;;;;;5001898;28;20237;-74
2022/11/29 02:28:15;;;;;;;36.83;20.90;;;3.10;99.90;;;;;;4916550;29;20216;-75
2022/11/29 02:31:40;;;;;;;35.53;19.73;;;2.90;99.90;;;;;;5019455;28;20234;-73
2022/11/29 02:34:51;;;;;;;39.53;20.63;;;2.80;99.90;;;;;;5024248;28;20233;-73
2022/11/29 02:37:52;;;;;;;38.80;20.00;;;2.90;99.90;;;;;;5020832;28;20217;-73
2022/11/29 02:41:10;;;;;;;43.50;21.20;;;3.00;99.90;;;;;;5033783;28;20218;-72
2022/11/29 02:44:43;;;;;;;39.10;20.90;;;3.00;99.90;;;;;;5003010;28;20248;-74
2022/11/29 02:47:46;;;;;;;34.20;19.20;;;3.10;99.90;;;;;;4938763;28;20286;-74
2022/11/29 02:50:42;;;;;;;36.53;19.70;;;3.00;99.90;;;;;;4937030;28;20231;-72
2022/11/29 02:53:37;;;;;;;37.20;20.07;;;3.30;99.90;;;;;;5004824;28;20288;-74
2022/11/29 02:56:30;;;;;;;37.90;20.40;;;3.10;99.90;;;;;;5003772;28;20816;-73
2022/11/29 02:59:33;;;;;;;37.33;19.97;;;3.00;99.90;;;;;;5012418;28;20234;-73
2022/11/29 03:02:28;;;;;;;35.53;19.33;;;3.00;99.90;;;;;;5003210;28;20252;-76
2022/11/29 03:05:25;;;;;;;37.80;20.23;;;2.90;99.90;;;;;;5012654;28;20240;-76
2022/11/29 03:08:23;;;;;;;38.63;19.30;;;3.00;99.90;;;;;;5026441;28;20331;-76
2022/11/29 03:11:24;;;;;;;40.40;20.13;;;3.10;99.90;;;;;;5056161;28;20255;-71
2022/11/29 03:14:19;;;;;;;36.67;19.57;;;3.30;99.90;;;;;;5010080;28;20315;-73
2022/11/29 03:17:17;;;;;;;34.67;19.03;;;3.30;99.90;;;;;;5034738;28;20596;-73
2022/11/29 03:20:22;;;;;;;37.00;19.27;;;3.10;99.90;;;;;;5022848;28;20228;-75
2022/11/29 03:23:21;;;;;;;36.00;19.30;;;3.20;99.90;;;;;;5037977;28;20960;-74
2022/11/29 03:26:14;;;;;;;38.07;19.37;;;3.30;99.90;;;;;;5024440;28;20236;-76
2022/11/29 03:29:07;;;;;;;36.93;19.40;;;3.10;99.90;;;;;;5030981;28;21042;-74
2022/11/29 03:32:01;;;;;;;33.53;18.33;;;3.30;99.90;;;;;;5032506;28;21505;-73
2022/11/29 03:34:59;;;;;;;35.23;18.07;;;3.20;99.90;;;;;;5025312;28;20235;-74
2022/11/29 03:37:55;;;;;;;34.67;18.40;;;3.20;99.90;;;;;;5031839;28;20238;-73
2022/11/29 03:40:52;;;;;;;33.80;18.67;;;3.30;99.90;;;;;;5024445;28;20240;-73
2022/11/29 03:43:45;;;;;;;38.63;19.67;;;3.10;99.90;;;;;;5037646;28;20228;-73
2022/11/29 03:46:38;;;;;;;36.80;18.73;;;3.10;99.90;;;;;;5037175;28;20225;-74
2022/11/29 03:49:33;;;;;;;33.73;18.83;;;3.40;99.90;;;;;;5034007;28;20222;-73
2022/11/29 03:52:27;;;;;;;35.40;18.77;;;3.20;99.90;;;;;;5023610;28;20232;-74
2022/11/29 03:55:30;;;;;;;37.50;18.70;;;3.00;99.90;;;;;;5027647;28;20221;-73
2022/11/29 03:58:42;;;;;;;33.80;19.07;;;2.90;99.90;;;;;;5036523;28;20300;-73
2022/11/29 04:02:08;;;;;;;33.03;19.10;;;3.00;99.90;;;;;;5025153;28;20306;-73
2022/11/29 04:05:21;;;;;;;35.03;18.23;;;3.00;99.90;;;;;;5032394;28;20220;-72
2022/11/29 04:08:32;;;;;;;36.10;19.27;;;3.00;99.90;;;;;;5034586;28;20283;-73
2022/11/29 04:11:53;;;;;;;35.90;18.73;;;3.20;99.90;;;;;;5023929;28;20216;-74
2022/11/29 04:15:30;;;;;;;35.70;18.67;;;3.00;99.90;;;;;;5035562;28;20243;-73
2022/11/29 04:18:46;;;;;;;34.10;19.07;;;3.00;99.90;;;;;;4939164;28;20228;-73
2022/11/29 04:22:00;;;;;;;34.53;18.43;;;3.20;99.90;;;;;;5049151;28;20692;-74
2022/11/29 04:25:05;;;;;;;34.63;18.90;;;3.20;99.90;;;;;;5016636;28;20215;-73
2022/11/29 04:28:12;;;;;;;34.67;19.43;;;3.10;99.90;;;;;;5035382;28;20221;-73
2022/11/29 04:31:14;;;;;;;30.27;16.80;;;3.00;99.90;;;;;;5022357;28;20305;-74
2022/11/29 04:34:34;;;;;;;32.83;18.10;;;3.10;99.90;;;;;;5034147;28;20770;-74
2022/11/29 04:37:59;;;;;;;34.50;18.73;;;3.10;99.90;;;;;;5029993;28;20336;-74
2022/11/29 04:41:18;;;;;;;33.80;18.27;;;3.20;99.90;;;;;;5026314;28;20907;-74
2022/11/29 04:44:37;;;;;;;33.70;18.37;;;3.10;99.90;;;;;;5022930;28;20244;-74
2022/11/29 04:47:50;;;;;;;37.10;17.57;;;3.20;99.90;;;;;;5051696;28;20287;-72
2022/11/29 04:50:53;;;;;;;32.30;17.70;;;3.30;99.90;;;;;;5037954;28;20232;-72
2022/11/29 04:53:57;;;;;;;33.60;18.93;;;3.00;99.90;;;;;;5019906;28;20243;-74
2022/11/29 04:56:48;;;;;;;37.63;19.50;;;3.00;99.90;;;;;;5034226;28;20264;-73
2022/11/29 04:59:43;;;;;;;35.10;18.20;;;2.90;99.90;;;;;;5035154;28;22164;-73
2022/11/29 05:02:39;;;;;;;34.03;19.53;;;3.10;99.90;;;;;;5035081;28;20224;-74
2022/11/29 05:05:35;;;;;;;35.30;19.53;;;3.10;99.90;;;;;;5033740;28;20213;-74
2022/11/29 05:08:33;;;;;;;38.30;19.27;;;3.20;99.90;;;;;;5044643;28;20742;-74
2022/11/29 05:11:32;;;;;;;35.63;19.80;;;3.30;99.90;;;;;;5040588;28;20224;-73
2022/11/29 05:14:31;;;;;;;37.07;19.20;;;3.20;99.90;;;;;;5027643;28;20242;-74
2022/11/29 05:17:36;;;;;;;33.63;18.97;;;3.00;99.90;;;;;;5029558;28;20258;-74
2022/11/29 05:20:38;;;;;;;35.80;19.10;;;3.30;99.90;;;;;;5029920;28;20251;-73
2022/11/29 05:23:39;;;;;;;38.23;19.70;;;3.00;99.90;;;;;;5025572;28;20256;-73
2022/11/29 05:26:34;;;;;;;41.90;20.47;;;3.10;99.90;;;;;;5032277;28;20222;-73
2022/11/29 05:29:33;;;;;;;39.20;20.37;;;3.20;99.90;;;;;;5030096;28;20221;-74
2022/11/29 05:32:34;;;;;;;37.00;19.93;;;3.20;99.90;;;;;;5020148;28;20217;-74
2022/11/29 05:35:55;;;;;;;39.13;20.73;;;3.00;99.90;;;;;;5028910;28;20256;-74
2022/11/29 05:39:17;;;;;;;39.00;21.27;;;2.90;99.90;;;;;;5032879;28;20213;-75
2022/11/29 05:42:23;;;;;;;42.07;21.43;;;3.00;99.90;;;;;;5020216;28;20241;-74
2022/11/29 05:45:18;;;;;;;37.23;20.03;;;3.10;99.90;;;;;;5035047;28;20231;-74
2022/11/29 05:48:14;;;;;;;41.37;20.83;;;3.20;99.90;;;;;;5033136;28;20956;-74
2022/11/29 05:51:16;;;;;;;37.47;19.87;;;3.30;99.90;;;;;;5037079;28;20234;-74
2022/11/29 05:54:14;;;;;;;41.87;21.43;;;3.10;99.90;;;;;;5022242;28;20224;-75
2022/11/29 05:57:14;;;;;;;38.40;21.70;;;3.10;99.90;;;;;;5041472;28;20236;-74
2022/11/29 06:00:05;;;;;;;42.17;21.17;;;3.10;99.90;;;;;;5027502;28;20261;-72
2022/11/29 06:03:08;;;;;;;45.67;21.73;;;3.10;99.90;;;;;;5040077;28;20335;-75
2022/11/29 06:06:00;;;;;;;41.57;22.50;;;2.80;99.90;;;;;;5035862;28;20666;-75
2022/11/29 06:08:56;;;;;;;44.47;23.03;;;2.90;99.90;;;;;;5040679;28;20243;-74
2022/11/29 06:11:48;;;;;;;50.33;23.50;;;2.80;99.90;;;;;;5041505;28;20216;-74
2022/11/29 06:14:55;;;;;;;43.53;21.97;;;2.90;99.90;;;;;;5038317;28;20263;-75
2022/11/29 06:18:02;;;;;;;44.00;21.97;;;2.90;99.90;;;;;;5036473;28;20217;-73
2022/11/29 06:21:01;;;;;;;47.57;23.67;;;2.80;99.90;;;;;;5034819;28;20225;-74
2022/11/29 06:24:05;;;;;;;41.30;22.10;;;2.90;99.90;;;;;;5036128;28;20227;-74
2022/11/29 06:27:15;;;;;;;47.53;23.40;;;2.80;99.90;;;;;;5021862;28;21454;-75
2022/11/29 06:30:08;;;;;;;47.40;23.90;;;2.80;99.90;;;;;;5037095;28;20223;-74
2022/11/29 06:33:05;;;;;;;45.80;23.50;;;2.70;99.90;;;;;;5042390;28;20595;-74
2022/11/29 06:36:07;;;;;;;41.50;22.53;;;2.80;99.90;;;;;;5020739;28;20220;-74
2022/11/29 06:38:57;;;;;;;41.90;22.70;;;3.00;99.90;;;;;;5035479;28;22669;-74
2022/11/29 06:41:47;;;;;;;39.30;22.43;;;2.90;99.90;;;;;;5038231;28;20224;-76
2022/11/29 06:44:36;;;;;;;44.13;24.43;;;2.90;99.90;;;;;;5037551;28;20235;-76
2022/11/29 06:47:30;;;;;;;43.03;22.97;;;2.90;99.90;;;;;;5040027;28;20220;-75
2022/11/29 06:50:31;;;;;;;41.47;23.70;;;2.90;99.90;;;;;;5035902;28;20698;-76
2022/11/29 06:53:28;;;;;;;45.17;23.13;;;3.10;99.90;;;;;;5035490;28;20220;-74
2022/11/29 06:56:26;;;;;;;41.80;22.90;;;3.10;99.90;;;;;;5031239;28;20229;-75
2022/11/29 06:59:32;;;;;;;44.73;23.93;;;3.10;99.90;;;;;;5037590;28;20268;-74
2022/11/29 07:02:34;;;;;;;46.40;24.07;;;3.10;99.90;;;;;;5035528;28;20358;-76
2022/11/29 07:05:25;;;;;;;47.33;24.60;;;3.00;99.90;;;;;;5028068;28;20267;-76
2022/11/29 07:08:17;;;;;;;48.60;25.37;;;3.00;99.90;;;;;;5036967;28;20310;-74
2022/11/29 07:11:06;;;;;;;45.10;23.97;;;3.10;99.90;;;;;;5028280;28;20240;-75
2022/11/29 07:13:57;;;;;;;42.27;23.37;;;3.00;99.90;;;;;;5036576;28;20221;-75
2022/11/29 07:16:53;;;;;;;45.07;24.27;;;2.90;99.90;;;;;;5043102;28;20216;-74
2022/11/29 07:19:54;;;;;;;42.40;22.43;;;3.00;99.90;;;;;;5035042;28;20213;-76
2022/11/29 07:22:59;;;;;;;41.93;22.77;;;3.10;99.90;;;;;;5023829;28;20315;-75
2022/11/29 07:26:00;;;;;;;42.10;22.70;;;3.20;99.90;;;;;;5043034;28;20597;-74
2022/11/29 07:29:13;;;;;;;43.73;23.03;;;3.10;99.90;;;;;;5025161;28;20241;-76
2022/11/29 07:32:08;;;;;;;41.47;23.33;;;3.30;99.90;;;;;;5036967;28;20224;-75
2022/11/29 07:35:08;;;;;;;49.07;24.70;;;3.30;99.90;;;;;;5036866;28;20229;-72
2022/11/29 07:38:07;;;;;;;50.80;24.83;;;3.10;99.90;;;;;;5028102;28;20229;-74
2022/11/29 07:41:02;;;;;;;49.57;25.10;;;3.20;99.90;;;;;;5035335;28;20217;-74
2022/11/29 07:44:02;;;;;;;46.43;23.57;;;3.20;99.90;;;;;;5021977;28;20744;-74
2022/11/29 07:46:52;;;;;;;42.93;23.83;;;3.20;99.90;;;;;;5038402;28;20588;-74
2022/11/29 07:49:41;;;;;;;45.10;23.30;;;3.20;99.90;;;;;;5040574;28;20235;-74
2022/11/29 07:52:30;;;;;;;41.27;23.33;;;3.30;99.90;;;;;;5040662;28;20285;-73
2022/11/29 07:55:21;;;;;;;39.50;22.17;;;3.50;99.90;;;;;;5020131;28;20677;-76
2022/11/29 07:58:11;;;;;;;44.87;22.53;;;3.40;99.90;;;;;;5033536;28;20227;-75
2022/11/29 08:01:00;;;;;;;38.37;20.80;;;3.50;99.90;;;;;;5035453;28;20221;-74
2022/11/29 08:03:50;;;;;;;39.97;22.10;;;3.50;99.90;;;;;;5040613;28;20348;-75
2022/11/29 08:06:38;;;;;;;38.93;21.80;;;3.30;99.90;;;;;;5035602;28;20240;-75
2022/11/29 08:09:27;;;;;;;37.80;21.30;;;3.40;99.90;;;;;;5037586;28;20232;-75
2022/11/29 08:12:15;;;;;;;40.03;22.70;;;3.40;99.90;;;;;;5030966;28;20308;-75
2022/11/29 08:15:05;;;;;;;41.47;22.03;;;3.40;99.90;;;;;;5030437;28;20224;-75
2022/11/29 08:17:54;;;;;;;38.07;21.87;;;3.50;99.90;;;;;;5037679;28;20224;-77
2022/11/29 08:20:45;;;;;;;37.53;20.73;;;3.50;99.90;;;;;;5035633;28;20237;-74
2022/11/29 08:23:33;;;;;;;41.77;21.80;;;3.50;99.90;;;;;;5035627;28;20217;-76
2022/11/29 08:26:22;;;;;;;38.13;20.97;;;3.60;99.90;;;;;;5032798;28;20699;-74
2022/11/29 08:29:33;;;;;;;35.70;20.53;;;3.50;99.90;;;;;;5015712;28;20251;-75
2022/11/29 08:32:22;;;;;;;36.80;21.07;;;3.50;99.90;;;;;;5017926;28;21022;-75
2022/11/29 08:35:11;;;;;;;39.63;21.43;;;3.60;99.90;;;;;;5040608;28;20720;-75
2022/11/29 08:38:02;;;;;;;38.27;22.07;;;3.50;99.90;;;;;;5035487;28;20236;-73
2022/11/29 08:40:51;;;;;;;36.57;21.63;;;3.60;99.90;;;;;;5032235;28;20813;-75
2022/11/29 08:43:39;;;;;;;38.03;20.80;;;3.50;99.90;;;;;;5029233;28;20244;-75
2022/11/29 08:49:31;;;;;;;41.33;22.70;;;3.60;99.90;;;;;;5034449;28;20221;-76
2022/11/29 08:55:38;;;;;;;35.53;20.10;;;3.60;99.90;;;;;;4999312;28;20688;-75
2022/11/29 08:58:27;;;;;;;40.07;22.07;;;3.80;99.90;;;;;;5023058;28;20294;-73
2022/11/29 09:01:18;;;;;;;42.33;23.87;;;3.80;99.90;;;;;;5029290;28;20224;-74
2022/11/29 09:04:09;;;;;;;37.60;21.10;;;3.80;99.90;;;;;;5024429;28;20233;-73
2022/11/29 09:06:57;;;;;;;36.50;21.07;;;3.80;99.90;;;;;;5028745;28;20873;-74
2022/11/29 09:09:47;;;;;;;33.87;20.83;;;3.80;99.90;;;;;;5039393;28;20220;-75
2022/11/29 09:12:38;;;;;;;35.13;21.07;;;3.60;99.90;;;;;;5021588;28;20221;-74
2022/11/29 09:15:26;;;;;;;40.13;20.67;;;3.70;99.90;;;;;;5032587;28;20569;-74
2022/11/29 09:18:15;;;;;;;36.10;20.80;;;3.80;99.90;;;;;;5015973;28;20229;-75
2022/11/29 09:21:05;;;;;;;37.30;20.50;;;3.80;99.90;;;;;;5026771;28;20278;-76
2022/11/29 09:23:57;;;;;;;38.37;20.43;;;3.90;99.90;;;;;;5033387;28;20218;-74
2022/11/29 09:26:47;;;;;;;36.67;21.27;;;3.90;99.90;;;;;;5038602;28;20271;-75
2022/11/29 09:29:37;;;;;;;36.13;20.27;;;4.00;99.90;;;;;;5042695;28;20991;-74
2022/11/29 09:32:26;;;;;;;35.20;20.73;;;4.10;99.90;;;;;;5038347;28;20270;-75
2022/11/29 09:35:14;;;;;;;39.90;21.57;;;4.00;99.90;;;;;;5041678;28;20236;-74
2022/11/29 09:38:03;;;;;;;34.53;20.33;;;3.90;99.90;;;;;;5033648;28;20224;-75
2022/11/29 09:40:54;;;;;;;36.67;20.20;;;3.80;99.90;;;;;;5039055;28;20396;-74
2022/11/29 09:43:51;;;;;;;36.67;20.80;;;3.80;99.90;;;;;;5036437;28;20229;-72
2022/11/29 09:46:49;;;;;;;35.90;20.47;;;3.90;99.90;;;;;;5038221;28;20221;-75
2022/11/29 09:49:56;;;;;;;36.50;20.30;;;3.70;99.90;;;;;;5036601;28;20245;-74
2022/11/29 09:52:51;;;;;;;39.07;20.63;;;3.90;99.90;;;;;;5048910;28;20595;-74
2022/11/29 09:55:59;;;;;;;36.23;20.33;;;4.10;99.90;;;;;;5049864;28;20282;-74
2022/11/29 09:58:54;;;;;;;35.07;20.17;;;4.20;99.90;;;;;;5056694;28;21006;-74
2022/11/29 10:01:49;;;;;;;33.40;18.67;;;4.00;99.90;;;;;;5038124;28;20227;-75
2022/11/29 10:04:40;;;;;;;33.37;18.97;;;4.00;99.90;;;;;;5036528;28;20228;-74
2022/11/29 10:07:35;;;;;;;34.40;19.80;;;4.10;99.90;;;;;;5027136;28;20228;-72
2022/11/29 10:10:29;;;;;;;33.50;18.87;;;4.00;99.90;;;;;;5018978;28;20228;-72
2022/11/29 10:13:23;;;;;;;31.40;18.57;;;4.10;99.90;;;;;;5039128;28;20231;-72
2022/11/29 10:16:18;;;;;;;30.77;18.33;;;3.70;99.90;;;;;;5038370;28;20220;-71
2022/11/29 10:19:15;;;;;;;32.70;18.50;;;3.60;99.90;;;;;;5043447;28;20744;-74
2022/11/29 10:22:07;;;;;;;35.13;20.43;;;3.60;99.90;;;;;;5037914;28;20253;-73
2022/11/29 10:25:01;;;;;;;30.93;18.47;;;3.70;99.90;;;;;;5037083;28;20216;-71
2022/11/29 10:27:49;;;;;;;31.07;18.40;;;3.70;99.90;;;;;;5023966;28;20265;-73
2022/11/29 10:30:40;;;;;;;29.93;17.97;;;4.00;99.90;;;;;;5034489;28;20229;-74
2022/11/29 10:33:32;;;;;;;30.13;17.57;;;3.70;99.90;;;;;;5022627;28;20761;-75
2022/11/29 10:36:28;;;;;;;30.60;18.50;;;3.60;99.90;;;;;;5028778;28;20221;-75
2022/11/29 10:39:26;;;;;;;32.67;19.83;;;3.70;99.90;;;;;;5034637;28;20301;-75
2022/11/29 10:45:28;;;;;;;31.27;17.80;;;3.80;99.90;;;;;;5025129;28;20287;-75
2022/11/29 10:48:19;;;;;;;32.10;19.37;;;3.60;99.90;;;;;;5035412;28;20224;-76
2022/11/29 10:51:16;;;;;;;30.60;18.30;;;3.80;99.90;;;;;;5035083;28;20247;-76
2022/11/29 10:54:23;;;;;;;33.13;18.77;;;3.90;99.90;;;;;;5039100;28;20425;-75
2022/11/29 10:57:15;;;;;;;30.27;17.90;;;4.00;99.90;;;;;;5032491;28;20232;-73
2022/11/29 11:00:06;;;;;;;30.73;18.80;;;4.00;99.90;;;;;;5035794;28;20607;-74
2022/11/29 11:02:55;;;;;;;31.10;18.60;;;3.80;99.90;;;;;;5021418;28;20232;-74
2022/11/29 11:06:00;;;;;;;30.13;17.10;;;3.70;99.90;;;;;;5034498;28;21016;-74
2022/11/29 11:08:53;;;;;;;31.77;18.40;;;3.80;99.90;;;;;;5032464;28;20228;-78
2022/11/29 11:11:51;;;;;;;31.03;18.33;;;3.90;99.90;;;;;;5049228;28;21169;-74
2022/11/29 14:58:20;;;;;;;32.20;18.63;;;3.80;99.90;;;;;;4974105;28;20561;-71
2022/11/29 15:01:10;;;;;;;30.43;19.17;;;3.50;99.90;;;;;;4960483;28;20395;-73
2022/11/29 15:04:03;;;;;;;34.43;20.53;;;3.40;99.90;;;;;;4962819;28;20234;-73
2022/11/29 15:06:56;;;;;;;32.47;19.20;;;3.50;99.90;;;;;;4964537;28;20249;-73
2022/11/29 15:09:49;;;;;;;30.73;18.70;;;3.30;99.90;;;;;;4961597;28;20234;-73
2022/11/29 15:12:38;;;;;;;30.77;18.90;;;3.60;99.90;;;;;;4971456;28;20223;-73
2022/11/29 15:15:53;;;;;;;32.23;19.73;;;3.30;99.90;;;;;;4965297;28;20230;-73
2022/11/29 15:19:13;;;;;;;30.70;18.27;;;3.20;99.90;;;;;;4965459;28;20231;-73
2022/11/29 15:22:12;;;;;;;30.37;18.83;;;3.60;99.90;;;;;;4962649;28;20231;-71
2022/11/29 15:25:04;;;;;;;33.23;19.27;;;3.50;99.90;;;;;;4967931;28;20282;-71
2022/11/29 15:27:54;;;;;;;29.80;18.97;;;3.80;99.90;;;;;;4960482;28;20722;-73
2022/11/29 15:30:44;;;;;;;31.53;19.30;;;3.70;99.90;;;;;;4972164;28;20601;-74
2022/11/29 15:33:36;;;;;;;39.63;23.80;;;3.80;99.90;;;;;;4961062;28;20234;-74
2022/11/29 15:36:25;;;;;;;30.53;17.97;;;3.60;99.90;;;;;;4964833;28;20716;-71
2022/11/29 15:39:26;;;;;;;31.97;19.43;;;3.60;99.90;;;;;;4961250;28;20302;-72
2022/11/29 15:42:15;;;;;;;33.93;19.97;;;3.60;99.90;;;;;;4959804;28;20222;-72
2022/11/29 15:45:22;;;;;;;33.03;20.20;;;3.60;99.90;;;;;;4966791;28;21052;-72
2022/11/29 15:48:20;;;;;;;35.80;19.87;;;3.70;99.90;;;;;;4959225;28;20215;-73
2022/11/29 15:51:18;;;;;;;31.40;19.87;;;3.80;99.90;;;;;;4965360;28;20223;-72
2022/11/29 15:54:13;;;;;;;32.17;19.77;;;3.60;99.90;;;;;;4968563;28;20242;-72
2022/11/29 16:21:39;;;;;;;30.53;17.70;;;3.70;99.90;;;;;;4964280;28;20605;-72
2022/11/29 16:24:28;;;;;;;31.27;18.47;;;3.50;99.90;;;;;;4939938;28;20223;-72
2022/11/29 16:27:20;;;;;;;34.47;19.87;;;3.50;99.90;;;;;;4922864;28;20242;-72
2022/11/29 16:30:21;;;;;;;35.00;21.87;;;3.60;99.90;;;;;;4944670;28;20703;-72
2022/11/29 16:33:20;;;;;;;35.07;20.10;;;3.60;99.90;;;;;;4950194;28;20916;-73
2022/11/29 16:36:15;;;;;;;30.47;20.67;;;3.70;99.90;;;;;;4942698;28;20358;-73
2022/11/29 16:39:15;;;;;;;33.80;20.20;;;3.80;99.90;;;;;;4946242;28;20231;-73
2022/11/29 16:42:13;;;;;;;33.17;21.00;;;3.70;99.90;;;;;;4949180;28;20701;-74
2022/11/29 16:45:27;;;;;;;35.70;21.20;;;3.60;99.90;;;;;;4938302;28;20235;-73
2022/11/29 16:48:29;;;;;;;33.30;19.93;;;3.60;99.90;;;;;;4936799;28;20826;-75
2022/11/29 16:51:24;;;;;;;32.90;20.53;;;3.60;99.90;;;;;;4945040;28;20604;-72
2022/11/29 16:54:22;;;;;;;31.90;20.23;;;3.70;99.90;;;;;;4936878;28;20228;-73
2022/11/29 16:57:12;;;;;;;35.40;20.07;;;3.80;99.90;;;;;;4936378;28;20224;-74
2022/11/29 17:00:03;;;;;;;33.43;20.60;;;3.80;99.90;;;;;;4930669;28;20232;-71
2022/11/29 17:02:53;;;;;;;31.00;19.70;;;3.90;99.90;;;;;;4945645;28;20228;-73
2022/11/29 17:05:41;;;;;;;37.30;20.13;;;3.70;99.90;;;;;;4936902;28;20270;-72
2022/11/29 17:08:33;;;;;;;35.13;18.93;;;3.80;99.90;;;;;;4936482;28;20247;-73
2022/11/29 17:11:23;;;;;;;31.77;19.70;;;3.80;99.90;;;;;;4939515;28;20227;-72
2022/11/29 17:14:12;;;;;;;35.20;19.43;;;3.70;99.90;;;;;;4939452;28;20228;-72
2022/11/29 17:17:00;;;;;;;35.17;20.20;;;3.70;99.90;;;;;;4939789;28;20239;-73
2022/11/29 17:19:49;;;;;;;31.37;19.13;;;3.80;99.90;;;;;;4942297;28;20231;-71
2022/11/29 17:22:38;;;;;;;29.93;18.63;;;3.70;99.90;;;;;;4963128;28;20838;-72
2022/11/29 17:25:27;;;;;;;31.20;19.57;;;3.60;99.90;;;;;;4972096;28;20239;-73
2022/11/29 17:28:17;;;;;;;31.17;19.30;;;3.40;99.90;;;;;;4958475;28;20779;-72
2022/11/29 17:31:09;;;;;;;27.90;19.00;;;3.70;99.90;;;;;;4965579;28;20241;-71
2022/11/29 17:33:59;;;;;;;31.10;19.23;;;3.60;99.90;;;;;;4941194;28;20331;-72
2022/11/29 17:36:48;;;;;;;32.33;19.90;;;3.60;99.90;;;;;;4958332;28;20224;-71
2022/11/29 17:39:36;;;;;;;28.53;19.37;;;3.80;99.90;;;;;;4952669;28;20224;-72
2022/11/29 17:42:25;;;;;;;33.27;19.83;;;3.80;99.90;;;;;;4943589;28;20224;-73
2022/11/29 17:45:15;;;;;;;31.00;19.80;;;3.70;99.90;;;;;;4952770;28;20228;-71
2022/11/29 17:48:04;;;;;;;31.47;20.10;;;3.70;99.90;;;;;;4946818;28;20232;-72
2022/11/29 17:50:52;;;;;;;32.00;19.57;;;3.70;99.90;;;;;;4948426;28;20248;-71
2022/11/29 17:53:41;;;;;;;36.23;20.27;;;3.80;99.90;;;;;;4950387;28;20228;-72
2022/11/29 17:56:31;;;;;;;33.67;19.70;;;3.80;99.90;;;;;;4964649;28;20242;-71
2022/11/29 17:59:19;;;;;;;33.23;19.33;;;3.70;99.90;;;;;;4946325;28;20228;-70
2022/11/29 18:02:12;;;;;;;30.83;19.93;;;3.70;99.90;;;;;;4950720;28;20272;-72
2022/11/29 18:05:01;;;;;;;32.20;20.13;;;3.70;99.90;;;;;;4942606;28;20229;-71
2022/11/29 18:07:59;;;;;;;32.10;19.70;;;3.70;99.90;;;;;;4945499;28;20224;-72
2022/11/29 18:10:47;;;;;;;35.07;21.47;;;3.80;99.90;;;;;;4947426;28;20233;-73
2022/11/29 18:13:36;;;;;;;28.80;18.90;;;3.80;99.90;;;;;;4953195;28;20288;-72
2022/11/29 18:16:26;;;;;;;34.47;19.20;;;3.80;99.90;;;;;;4949358;28;20235;-72
2022/11/29 18:19:18;;;;;;;34.80;20.40;;;3.70;99.90;;;;;;4946346;28;20283;-72
2022/11/29 18:22:08;;;;;;;28.17;18.77;;;3.70;99.90;;;;;;4943594;28;20239;-73
2022/11/29 18:24:56;;;;;;;31.83;19.50;;;3.90;99.90;;;;;;4946338;28;20231;-72
2022/11/29 18:28:07;;;;;;;30.77;19.73;;;3.80;99.90;;;;;;4944456;28;20315;-72
2022/11/29 18:30:56;;;;;;;30.10;19.33;;;3.90;99.90;;;;;;4939554;28;20306;-73
2022/11/29 18:33:46;;;;;;;31.90;19.97;;;3.90;99.90;;;;;;4948380;28;20234;-73
2022/11/29 18:36:38;;;;;;;32.77;19.47;;;4.00;99.90;;;;;;4945077;28;20224;-73
2022/11/29 18:39:26;;;;;;;27.57;17.53;;;3.90;99.90;;;;;;4948056;28;20367;-74
2022/11/29 18:42:15;;;;;;;30.37;18.63;;;3.90;99.90;;;;;;4944797;28;20326;-71
2022/11/29 18:45:04;;;;;;;30.90;19.33;;;3.80;99.90;;;;;;4940682;28;20842;-73
2022/11/29 18:47:53;;;;;;;30.90;19.40;;;3.80;99.90;;;;;;4956373;28;20224;-73
2022/11/29 18:50:41;;;;;;;29.70;18.67;;;3.70;99.90;;;;;;4949370;28;20220;-72
2022/11/29 18:53:34;;;;;;;32.80;20.03;;;3.80;99.90;;;;;;4944576;28;20256;-73
2022/11/29 18:56:25;;;;;;;32.07;19.33;;;3.60;99.90;;;;;;4945705;28;20227;-72
2022/11/29 18:59:15;;;;;;;32.00;19.23;;;3.70;99.90;;;;;;4945840;28;20276;-72
2022/11/29 19:02:05;;;;;;;31.63;19.77;;;3.80;99.90;;;;;;4951261;28;20251;-73
2022/11/29 19:04:53;;;;;;;34.20;19.97;;;3.90;99.90;;;;;;4957496;28;20247;-74
2022/11/29 19:07:42;;;;;;;31.63;19.23;;;3.80;99.90;;;;;;4945251;28;20342;-73
2022/11/29 19:10:33;;;;;;;33.13;19.10;;;3.90;99.90;;;;;;4948835;28;21629;-73
2022/11/29 19:13:22;;;;;;;31.47;18.93;;;3.60;99.90;;;;;;4944598;28;20612;-73
2022/11/29 19:16:14;;;;;;;30.80;18.47;;;3.80;99.90;;;;;;4943393;28;20231;-72
2022/11/29 19:19:03;;;;;;;37.20;19.47;;;3.90;99.90;;;;;;4943257;28;20224;-73